Linus P — V7RA8 — position and weather

sailwx.info

Track history (hours):
 
Tides and Currents Weather Stations Pressure Air Temp Water Temp Dewpoint Dewpoint Depression Visibility Wind Speed Wind Dir Waves Ship Positions

Linus P

Last reported at 2017-Nov-16 08:58 UTC. Time now 2017-Nov-23 09:42 UTC.
Position N 31°11' E 122°10'.

Length 169 m; draft 7 m.

Type: Ship (hazmat cat A). MMSI: 538006808.

Date/timePositionNaut miles runAvg speedWind from/ knotsBaromVisibWave heightAir tempDewpointWater temp
2017-Nov-16 08:58N 31°11' E 122°10'510.7
2017-Nov-16 08:30N 31°14' E 122°05'612.7
2017-Nov-16 08:00N 31°15' E 121°57'714.8
2017-Nov-16 07:30N 31°17' E 121°49'612.4
2017-Nov-16 07:00N 31°19' E 121°42'611.6
2017-Nov-16 06:31N 31°22' E 121°37'4 8.3
2017-Nov-16 06:01N 31°24' E 121°32'4 8.3
2017-Nov-16 05:31N 31°27' E 121°28'611.2
2017-Nov-16 05:01N 31°31' E 121°24'511.0
2017-Nov-16 04:31N 31°34' E 121°19'510.5
2017-Nov-16 04:01N 31°38' E 121°15'510.1
2017-Nov-16 03:31N 31°41' E 121°10'5 9.9
2017-Nov-16 03:00N 31°45' E 121°06'610.4
2017-Nov-16 02:27N 31°47' E 120°59'3 0.1
2017-Nov-14 08:19N 31°46' E 121°03'310.4
2017-Nov-14 08:00N 31°44' E 121°06'510.3
2017-Nov-14 07:30N 31°41' E 121°11'510.6
2017-Nov-14 07:01N 31°38' E 121°15'510.8
2017-Nov-14 06:30N 31°33' E 121°19'611.1
2017-Nov-14 06:01N 31°30' E 121°25'510.5
2017-Nov-14 05:31N 31°27' E 121°29'4 7.7
2017-Nov-14 05:00N 31°24' E 121°33'510.5
2017-Nov-14 04:31N 31°22' E 121°38'5 9.9
2017-Nov-14 04:00N 31°19' E 121°43'510.0
2017-Nov-14 03:31N 31°17' E 121°49'510.5
2017-Nov-14 03:01N 31°16' E 121°54'510.0
2017-Nov-14 02:31N 31°15' E 122°00'510.3
2017-Nov-14 02:00N 31°14' E 122°06'710.8
2017-Nov-14 01:21N 31°10' E 122°13'13 9.0
2017-Nov-13 23:56N 31°07' E 122°27'  
Track history (hours):
 
Tides and Currents Weather Stations Pressure Air Temp Water Temp Dewpoint Dewpoint Depression Visibility Wind Speed Wind Dir Waves Ship Positions

Linus P

Last reported at 2017-Nov-16 08:58 UTC. Time now 2017-Nov-23 09:42 UTC.
Position N 31°11' E 122°10'.

Length 169 m; draft 7 m.

Type: Ship (hazmat cat A). MMSI: 538006808.

Date/timePositionNaut miles runAvg speedWind from/ knotsBaromVisibWave heightAir tempDewpointWater temp
2017-Nov-16 08:58N 31°11' E 122°10'510.7
2017-Nov-16 08:30N 31°14' E 122°05'612.7
2017-Nov-16 08:00N 31°15' E 121°57'714.8
2017-Nov-16 07:30N 31°17' E 121°49'612.4
2017-Nov-16 07:00N 31°19' E 121°42'611.6
2017-Nov-16 06:31N 31°22' E 121°37'4 8.3
2017-Nov-16 06:01N 31°24' E 121°32'4 8.3
2017-Nov-16 05:31N 31°27' E 121°28'611.2
2017-Nov-16 05:01N 31°31' E 121°24'511.0
2017-Nov-16 04:31N 31°34' E 121°19'510.5
2017-Nov-16 04:01N 31°38' E 121°15'510.1
2017-Nov-16 03:31N 31°41' E 121°10'5 9.9
2017-Nov-16 03:00N 31°45' E 121°06'610.4
2017-Nov-16 02:27N 31°47' E 120°59'3 0.1
2017-Nov-14 08:19N 31°46' E 121°03'310.4
2017-Nov-14 08:00N 31°44' E 121°06'510.3
2017-Nov-14 07:30N 31°41' E 121°11'510.6
2017-Nov-14 07:01N 31°38' E 121°15'510.8
2017-Nov-14 06:30N 31°33' E 121°19'611.1
2017-Nov-14 06:01N 31°30' E 121°25'510.5
2017-Nov-14 05:31N 31°27' E 121°29'4 7.7
2017-Nov-14 05:00N 31°24' E 121°33'510.5
2017-Nov-14 04:31N 31°22' E 121°38'5 9.9
2017-Nov-14 04:00N 31°19' E 121°43'510.0
2017-Nov-14 03:31N 31°17' E 121°49'510.5
2017-Nov-14 03:01N 31°16' E 121°54'510.0
2017-Nov-14 02:31N 31°15' E 122°00'510.3
2017-Nov-14 02:00N 31°14' E 122°06'710.8
2017-Nov-14 01:21N 31°10' E 122°13'13 9.0
2017-Nov-13 23:56N 31°07' E 122°27'  

Dump ship's entire track history